createdAt,value
2024-04-06T00:00:53.160Z,100431.42
2024-04-06T00:01:54.117Z,100430.25
2024-04-06T00:02:54.719Z,100428.84
2024-04-06T00:03:55.481Z,100427.58
2024-04-06T00:04:56.084Z,100426.02
2024-04-06T00:05:56.161Z,100424.17
2024-04-06T00:06:56.717Z,100422.53
2024-04-06T00:08:06.068Z,100420.45
2024-04-06T00:08:57.848Z,100417.92
2024-04-06T00:09:58.170Z,100415.47
2024-04-06T00:10:58.196Z,100413.05
2024-04-06T00:11:58.579Z,100410.52
2024-04-06T00:12:59.147Z,100408.55
2024-04-06T00:14:00.044Z,100405.67
2024-04-06T00:15:00.366Z,100403.45
2024-04-06T00:16:01.395Z,100401.42
2024-04-06T00:16:10.048Z,99926.33
2024-04-06T00:17:11.004Z,100366.38
2024-04-06T00:18:12.644Z,100365.28
2024-04-06T00:19:11.883Z,100364.48
2024-04-06T00:20:11.990Z,100363.75
2024-04-06T00:21:12.633Z,100362.58
2024-04-06T00:22:13.466Z,100360.67
2024-04-06T00:23:13.921Z,100358.67
2024-04-06T00:24:14.416Z,100357.03
2024-04-06T00:25:15.325Z,100354.21
2024-04-06T00:26:15.944Z,100351.98
2024-04-06T00:27:15.987Z,100350.13
2024-04-06T00:28:16.375Z,100347.45
2024-04-06T00:29:16.490Z,100344.59
2024-04-06T00:30:17.061Z,100342.17
2024-04-06T00:31:17.633Z,100339.55
2024-04-06T00:32:18.118Z,100337.51
2024-04-06T00:33:18.852Z,100334.38
2024-04-06T00:34:18.993Z,100332.09
2024-04-06T00:35:19.668Z,100329.84
2024-04-06T00:36:20.134Z,100327.52
2024-04-06T00:37:20.524Z,100325.63
2024-04-06T00:38:21.123Z,100323.48
2024-04-06T00:39:21.581Z,100321.00
2024-04-06T00:40:21.587Z,100318.73
2024-04-06T00:41:22.266Z,100315.95
2024-04-06T00:42:22.934Z,100313.34
2024-04-06T00:43:24.613Z,100311.02
2024-04-06T00:43:48.801Z,99938.98
2024-04-06T00:44:48.862Z,100277.27
2024-04-06T00:45:49.322Z,100276.59
2024-04-06T00:46:49.792Z,100276.25
2024-04-06T00:47:50.818Z,100275.57
2024-04-06T00:48:51.343Z,100275.73
2024-04-06T00:49:51.911Z,100274.94
2024-04-06T00:50:52.589Z,100274.54
2024-04-06T00:51:52.885Z,100273.41
2024-04-06T00:52:53.697Z,100271.63
2024-04-06T00:53:54.072Z,100269.30
2024-04-06T00:54:55.064Z,100267.19
2024-04-06T00:55:56.001Z,100265.22
2024-04-06T00:56:57.008Z,100263.91
2024-04-06T00:57:57.179Z,100261.42
2024-04-06T00:58:57.710Z,100259.48
2024-04-06T00:59:58.151Z,100257.16
2024-04-06T01:00:58.529Z,100255.04
2024-04-06T01:02:05.019Z,100253.00
2024-04-06T01:03:00.031Z,100251.23
2024-04-06T01:04:00.541Z,100249.41
2024-04-06T01:05:00.881Z,100247.72
2024-04-06T01:06:01.149Z,100245.94
2024-04-06T01:07:01.517Z,100244.09
2024-04-06T01:08:01.862Z,100242.34
2024-04-06T01:09:02.672Z,100239.73
2024-04-06T01:10:03.658Z,100237.61
2024-04-06T01:11:03.674Z,100234.95
2024-04-06T01:11:14.310Z,99681.85
2024-04-06T01:12:15.131Z,100209.66
2024-04-06T01:13:15.478Z,100209.41
2024-04-06T01:14:15.897Z,100209.34
2024-04-06T01:15:16.519Z,100209.51
2024-04-06T01:16:17.380Z,100209.55
2024-04-06T01:17:18.318Z,100208.60
2024-04-06T01:18:18.394Z,100208.08
2024-04-06T01:19:18.638Z,100207.52
2024-04-06T01:20:19.192Z,100206.87
2024-04-06T01:21:19.797Z,100206.11
2024-04-06T01:22:20.292Z,100204.52
2024-04-06T01:23:20.687Z,100203.11
2024-04-06T01:24:21.289Z,100201.76
2024-04-06T01:25:21.809Z,100200.42
2024-04-06T01:26:22.250Z,100198.38
2024-04-06T01:27:22.606Z,100195.72
2024-04-06T01:28:24.030Z,100193.41
2024-04-06T01:29:23.095Z,100190.77
2024-04-06T01:30:23.703Z,100188.24
2024-04-06T01:31:24.278Z,100185.42
2024-04-06T01:32:24.766Z,100182.67
2024-04-06T01:33:26.360Z,100180.34
2024-04-06T01:34:53.790Z,99820.29
2024-04-06T01:35:54.523Z,100134.41
2024-04-06T01:36:55.058Z,100134.16
2024-04-06T01:37:55.675Z,100134.11
2024-04-06T01:38:56.058Z,100133.79
2024-04-06T01:39:56.752Z,100134.34
2024-04-06T01:40:57.037Z,100133.85
2024-04-06T01:41:57.578Z,100133.56
2024-04-06T01:42:57.976Z,100133.23
2024-04-06T01:43:58.522Z,100132.11
2024-04-06T01:44:59.734Z,100130.95
2024-04-06T01:45:59.122Z,100129.39
2024-04-06T01:46:59.427Z,100127.63
2024-04-06T01:47:59.950Z,100125.94
2024-04-06T01:49:00.534Z,100124.90
2024-04-06T01:50:00.971Z,100123.92
2024-04-06T01:51:01.383Z,100122.59
2024-04-06T01:52:03.258Z,100121.38
2024-04-06T01:53:03.006Z,100120.25
2024-04-06T01:54:03.668Z,100119.20
2024-04-06T01:55:04.051Z,100118.25
2024-04-06T01:56:04.178Z,100116.91
2024-04-06T01:57:05.172Z,100115.52
2024-04-06T01:58:06.073Z,100114.14
2024-04-06T01:58:14.808Z,99645.20
2024-04-06T01:59:15.283Z,100102.64
2024-04-06T02:00:15.630Z,100101.96
2024-04-06T02:01:16.511Z,100101.37
2024-04-06T02:02:18.291Z,100101.20
2024-04-06T02:03:17.096Z,100100.20
2024-04-06T02:04:18.021Z,100099.23
2024-04-06T02:05:18.039Z,100098.31
2024-04-06T02:06:18.619Z,100097.76
2024-04-06T02:07:19.268Z,100095.82
2024-04-06T02:08:20.784Z,100092.77
2024-04-06T02:09:20.576Z,100089.21
2024-04-06T02:10:21.086Z,100085.66
2024-04-06T02:11:22.024Z,100082.09
2024-04-06T02:12:21.944Z,100078.70
2024-04-06T02:13:22.512Z,100073.36
2024-04-06T02:14:23.388Z,100068.91
2024-04-06T02:15:24.196Z,100063.91
2024-04-06T02:16:24.375Z,100059.62
2024-04-06T02:17:26.312Z,100055.55
2024-04-06T02:18:25.530Z,100051.58
2024-04-06T02:19:25.608Z,100048.02
2024-04-06T02:19:35.614Z,99534.55
2024-04-06T02:20:35.577Z,100001.75
2024-04-06T02:21:35.697Z,100000.62
2024-04-06T02:22:35.886Z,99999.14
2024-04-06T02:23:36.077Z,99998.30
2024-04-06T02:24:36.849Z,99996.27
2024-04-06T02:25:37.715Z,99994.35
2024-04-06T02:26:38.311Z,99993.07
2024-04-06T02:27:38.918Z,99991.64
2024-04-06T02:28:39.273Z,99990.55
2024-04-06T02:29:39.875Z,99987.80
2024-04-06T02:30:40.242Z,99977.16
2024-04-06T02:31:40.893Z,99964.63
2024-04-06T02:32:41.193Z,99952.60
2024-04-06T02:33:42.081Z,99941.33
2024-04-06T02:34:42.617Z,99930.24
2024-04-06T02:35:43.211Z,99919.91
2024-04-06T02:36:43.844Z,99909.91
2024-04-06T02:37:44.272Z,99900.42
2024-04-06T02:38:44.462Z,99891.58
2024-04-06T02:39:44.896Z,99883.30
2024-04-06T02:40:45.309Z,99875.25
2024-04-06T02:41:46.072Z,99867.92
2024-04-06T02:42:46.194Z,99859.89
2024-04-06T02:43:47.135Z,99853.04
2024-04-06T02:44:48.658Z,99845.84
2024-04-06T02:45:48.275Z,99839.03
2024-04-06T02:46:48.627Z,99832.86
2024-04-06T02:47:49.569Z,99826.34
2024-04-06T02:47:58.216Z,99299.55
2024-04-06T02:48:58.881Z,99740.52
2024-04-06T02:49:59.677Z,99740.27
2024-04-06T02:51:00.668Z,99739.94
2024-04-06T02:52:00.696Z,99739.38
2024-04-06T02:53:00.681Z,99738.80
2024-04-06T02:54:01.442Z,99737.69
2024-04-06T02:55:01.997Z,99736.19
2024-04-06T02:56:02.451Z,99735.27
2024-04-06T02:57:02.686Z,99733.45
2024-04-06T02:58:03.324Z,99731.30
2024-04-06T02:59:03.346Z,99730.45
2024-04-06T03:00:04.022Z,99728.34
2024-04-06T03:01:04.147Z,99726.89
2024-04-06T03:02:05.104Z,99725.47
2024-04-06T03:03:05.746Z,99723.53
2024-04-06T03:04:06.700Z,99721.55
2024-04-06T03:05:07.372Z,99719.44
2024-04-06T03:06:08.205Z,99717.72
2024-04-06T03:07:08.776Z,99715.53
2024-04-06T03:08:09.495Z,99714.40
2024-04-06T03:09:09.526Z,99712.80
2024-04-06T03:10:11.122Z,99711.84
2024-04-06T03:11:10.248Z,99711.00
2024-04-06T03:12:11.089Z,99710.73
2024-04-06T03:13:11.189Z,99710.30
2024-04-06T03:14:11.385Z,99709.98
2024-04-06T03:15:11.579Z,99709.20
2024-04-06T03:16:12.182Z,99708.42
2024-04-06T03:16:22.734Z,99414.56
2024-04-06T03:17:23.380Z,99701.59
2024-04-06T03:18:23.869Z,99700.79
2024-04-06T03:19:24.540Z,99699.28
2024-04-06T03:20:25.222Z,99697.98
2024-04-06T03:21:26.011Z,99696.31
2024-04-06T03:22:26.483Z,99694.25
2024-04-06T03:23:27.903Z,99692.31
2024-04-06T03:24:27.741Z,99689.66
2024-04-06T03:25:28.341Z,99687.72
2024-04-06T03:26:29.019Z,99686.07
2024-04-06T03:27:29.607Z,99683.67
2024-04-06T03:28:29.657Z,99681.76
2024-04-06T03:29:30.289Z,99679.44
2024-04-06T03:30:30.792Z,99677.77
2024-04-06T03:31:31.312Z,99675.70
2024-04-06T03:32:32.025Z,99674.06
2024-04-06T03:33:32.188Z,99672.27
2024-04-06T03:34:32.770Z,99671.34
2024-04-06T03:35:33.040Z,99670.05
2024-04-06T03:36:33.776Z,99669.14
2024-04-06T03:37:34.443Z,99668.27
2024-04-06T03:38:35.012Z,99666.97
2024-04-06T03:39:35.597Z,99666.02
2024-04-06T03:40:36.140Z,99664.68
2024-04-06T03:41:36.682Z,99663.06
2024-04-06T03:42:37.321Z,99661.51
2024-04-06T03:43:39.033Z,99660.13
2024-04-06T03:44:39.055Z,99659.09
2024-04-06T03:45:38.975Z,99657.37
2024-04-06T03:45:48.443Z,99372.69
2024-04-06T03:46:48.518Z,99644.25
2024-04-06T03:47:49.082Z,99644.03
2024-04-06T03:48:49.785Z,99643.63
2024-04-06T03:49:50.359Z,99643.47
2024-04-06T03:50:51.049Z,99643.23
2024-04-06T03:51:51.659Z,99642.96
2024-04-06T03:52:51.923Z,99642.02
2024-04-06T03:53:52.375Z,99641.42
2024-04-06T03:54:52.850Z,99641.27
2024-04-06T03:55:53.586Z,99640.95
2024-04-06T03:56:54.447Z,99640.00
2024-04-06T03:57:55.982Z,99639.67
2024-04-06T03:58:55.372Z,99638.84
2024-04-06T03:59:55.911Z,99638.05
2024-04-06T04:00:56.482Z,99637.58
2024-04-06T04:01:57.370Z,99636.73
2024-04-06T04:02:57.973Z,99635.84
2024-04-06T04:03:58.553Z,99635.45
2024-04-06T04:04:59.155Z,99634.59
2024-04-06T04:05:59.891Z,99633.58
2024-04-06T04:07:00.905Z,99632.75
2024-04-06T04:08:01.561Z,99631.30
2024-04-06T04:09:02.069Z,99629.59
2024-04-06T04:10:02.129Z,99628.64
2024-04-06T04:11:02.538Z,99627.92
2024-04-06T04:12:04.197Z,99627.16
2024-04-06T04:13:04.121Z,99626.01
2024-04-06T04:14:04.185Z,99624.77
2024-04-06T04:14:16.771Z,98877.99
2024-04-06T04:15:17.664Z,99613.98
2024-04-06T04:16:17.671Z,99613.64
2024-04-06T04:17:18.358Z,99612.80
2024-04-06T04:18:18.581Z,99611.91
2024-04-06T04:19:18.744Z,99610.48
2024-04-06T04:20:19.204Z,99609.81
2024-04-06T04:21:19.823Z,99608.72
2024-04-06T04:22:20.347Z,99608.21
2024-04-06T04:23:20.853Z,99607.50
2024-04-06T04:24:22.432Z,99607.06
2024-04-06T04:25:21.954Z,99606.20
2024-04-06T04:26:22.887Z,99605.95
2024-04-06T04:27:23.245Z,99604.14
2024-04-06T04:28:23.646Z,99603.31
2024-04-06T04:29:24.028Z,99602.59
2024-04-06T04:30:24.766Z,99601.09
2024-04-06T04:31:25.272Z,99600.50
2024-04-06T04:32:26.013Z,99598.98
2024-04-06T04:33:26.455Z,99597.87
2024-04-06T04:34:27.066Z,99595.84
2024-04-06T04:35:27.180Z,99594.59
2024-04-06T04:36:28.104Z,99593.06
2024-04-06T04:37:28.766Z,99591.10
2024-04-06T04:38:29.730Z,99589.81
2024-04-06T04:39:30.166Z,99588.44
2024-04-06T04:40:30.516Z,99587.45
2024-04-06T04:41:31.013Z,99585.41
2024-04-06T04:42:31.952Z,99584.05
2024-04-06T04:42:40.632Z,99299.16
2024-04-06T04:43:41.302Z,99584.26
2024-04-06T04:44:46.351Z,99583.94
2024-04-06T04:45:43.454Z,99584.20
2024-04-06T04:46:43.962Z,99584.28
2024-04-06T04:47:43.796Z,99583.68
2024-04-06T04:48:44.336Z,99584.64
2024-04-06T04:49:44.884Z,99588.66
2024-04-06T04:50:45.537Z,99592.20
2024-04-06T04:51:46.082Z,99596.03
2024-04-06T04:52:46.880Z,99599.08
2024-04-06T04:53:48.036Z,99602.03
2024-04-06T04:54:48.567Z,99604.48
2024-04-06T04:55:48.417Z,99607.02
2024-04-06T04:56:49.168Z,99609.55
2024-04-06T04:57:49.536Z,99611.45
2024-04-06T04:58:50.091Z,99613.76
2024-04-06T04:59:50.697Z,99615.33
2024-04-06T05:00:51.231Z,99617.33
2024-04-06T05:01:52.033Z,99618.69
2024-04-06T05:02:52.905Z,99620.09
2024-04-06T05:03:53.693Z,99620.74
2024-04-06T05:04:54.184Z,99621.51
2024-04-06T05:05:55.166Z,99621.81
2024-04-06T05:06:55.556Z,99621.83
2024-04-06T05:07:55.665Z,99621.76
2024-04-06T05:08:56.428Z,99621.47
2024-04-06T05:09:07.024Z,99503.84
2024-04-06T05:10:07.149Z,99638.02
2024-04-06T05:11:07.685Z,99636.86
2024-04-06T05:12:09.158Z,99634.87
2024-04-06T05:13:08.901Z,99633.38
2024-04-06T05:14:10.304Z,99631.47
2024-04-06T05:15:10.277Z,99628.86
2024-04-06T05:16:11.087Z,99626.28
2024-04-06T05:17:11.515Z,99623.73
2024-04-06T05:18:12.012Z,99621.81
2024-04-06T05:19:12.796Z,99619.49
2024-04-06T05:20:13.100Z,99617.62
2024-04-06T05:21:13.805Z,99616.39
2024-04-06T05:22:14.469Z,99615.02
2024-04-06T05:23:15.305Z,99614.34
2024-04-06T05:24:15.920Z,99613.42
2024-04-06T05:25:16.504Z,99612.16
2024-04-06T05:26:18.397Z,99610.89
2024-04-06T05:27:17.980Z,99609.27
2024-04-06T05:28:18.496Z,99608.22
2024-04-06T05:29:19.264Z,99607.49
2024-04-06T05:30:19.456Z,99606.98
2024-04-06T05:31:20.257Z,99606.48
2024-04-06T05:32:20.250Z,99606.16
2024-04-06T05:33:21.003Z,99605.07
2024-04-06T05:34:21.665Z,99605.75
2024-04-06T05:35:22.187Z,99606.38
2024-04-06T05:36:22.649Z,99606.50
2024-04-06T05:37:23.223Z,99605.73
2024-04-06T05:37:32.424Z,99526.62
2024-04-06T05:38:32.844Z,99636.42
2024-04-06T05:39:33.240Z,99634.61
2024-04-06T05:40:33.664Z,99632.57
2024-04-06T05:41:34.389Z,99630.66
2024-04-06T05:42:34.799Z,99629.55
2024-04-06T05:43:35.157Z,99628.19
2024-04-06T05:44:35.831Z,99626.86
2024-04-06T05:45:36.243Z,99625.11
2024-04-06T05:46:37.048Z,99624.22
2024-04-06T05:47:37.811Z,99622.47
2024-04-06T05:48:38.394Z,99621.13
2024-04-06T05:49:38.463Z,99619.87
2024-04-06T05:50:39.218Z,99619.14
2024-04-06T05:51:39.800Z,99617.94
2024-04-06T05:52:39.864Z,99616.86
2024-04-06T05:53:40.514Z,99615.18
2024-04-06T05:54:41.440Z,99613.34
2024-04-06T05:55:42.079Z,99612.30
2024-04-06T05:56:43.058Z,99612.23
2024-04-06T05:57:42.628Z,99611.59
2024-04-06T05:58:43.460Z,99610.59
2024-04-06T05:59:43.892Z,99609.53
2024-04-06T06:00:44.273Z,99607.98
2024-04-06T06:01:44.725Z,99606.73
2024-04-06T06:02:46.713Z,99605.72
2024-04-06T06:03:46.610Z,99604.77
2024-04-06T06:04:47.046Z,99603.46
2024-04-06T06:05:47.870Z,99602.36
2024-04-06T06:05:56.548Z,99212.42
2024-04-06T06:06:56.754Z,99602.31
2024-04-06T06:07:57.460Z,99600.98
2024-04-06T06:08:57.934Z,99599.69
2024-04-06T06:09:58.286Z,99598.67
2024-04-06T06:10:58.707Z,99598.08
2024-04-06T06:11:59.513Z,99597.67
2024-04-06T06:12:59.526Z,99598.13
2024-04-06T06:13:59.735Z,99598.39
2024-04-06T06:15:00.553Z,99599.20
2024-04-06T06:16:00.946Z,99599.53
2024-04-06T06:17:01.502Z,99599.00
2024-04-06T06:18:01.628Z,99599.50
2024-04-06T06:19:02.176Z,99598.86
2024-04-06T06:20:02.273Z,99598.84
2024-04-06T06:21:02.911Z,99597.75
2024-04-06T06:22:02.975Z,99597.11
2024-04-06T06:23:03.256Z,99597.81
2024-04-06T06:24:03.719Z,99598.02
2024-04-06T06:25:04.685Z,99598.23
2024-04-06T06:26:12.004Z,99598.19
2024-04-06T06:27:05.453Z,99599.95
2024-04-06T06:28:05.921Z,99600.45
2024-04-06T06:29:06.665Z,99602.01
2024-04-06T06:30:07.467Z,99603.70
2024-04-06T06:31:07.854Z,99604.87
2024-04-06T06:32:08.880Z,99606.89
2024-04-06T06:33:09.830Z,99608.28
2024-04-06T06:34:10.058Z,99610.78
2024-04-06T06:35:10.660Z,99613.92
2024-04-06T06:35:22.678Z,99403.19
2024-04-06T06:38:25.638Z,99653.39
2024-04-06T06:41:25.729Z,99657.20
2024-04-06T06:42:26.560Z,99658.98
2024-04-06T06:43:27.331Z,99662.27
2024-04-06T06:45:28.280Z,99671.80
2024-04-06T06:46:28.786Z,99680.59
2024-04-06T06:47:29.283Z,99689.88
2024-04-06T06:48:29.670Z,99698.70
2024-04-06T06:49:30.480Z,99710.78
2024-04-06T06:50:34.295Z,99725.95
2024-04-06T06:51:32.073Z,99744.25
2024-04-06T06:52:33.051Z,99763.03
2024-04-06T06:53:34.102Z,99784.92
2024-04-06T06:54:34.828Z,99811.55
2024-04-06T06:55:40.225Z,99836.34
2024-04-06T06:56:35.943Z,99860.79
2024-04-06T06:57:36.255Z,99886.72
2024-04-06T06:58:36.569Z,99914.00
2024-04-06T07:00:52.377Z,100469.53
2024-04-06T07:01:53.606Z,100475.95
2024-04-06T07:02:52.934Z,100484.48
2024-04-06T07:03:53.404Z,100494.42
2024-04-06T07:04:53.581Z,100509.05
2024-04-06T07:05:54.563Z,100522.01
2024-04-06T07:07:54.857Z,100555.17
2024-04-06T07:09:56.830Z,100597.72
2024-04-06T07:10:57.124Z,100620.03
2024-04-06T07:11:58.259Z,100642.19
2024-04-06T07:12:56.551Z,100665.33
2024-04-06T07:13:56.600Z,100690.08
2024-04-06T07:14:59.941Z,100714.91
2024-04-06T07:15:58.817Z,100739.66
2024-04-06T07:16:58.663Z,100765.72
2024-04-06T07:17:59.037Z,100791.26
2024-04-06T07:19:01.696Z,100815.80
2024-04-06T07:19:11.924Z,101220.71
2024-04-06T07:20:12.618Z,101201.52
2024-04-06T07:21:12.659Z,101201.69
2024-04-06T07:22:13.194Z,101202.64
2024-04-06T07:23:14.114Z,101203.91
2024-04-06T07:24:15.914Z,101205.72
2024-04-06T07:25:14.817Z,101207.63
2024-04-06T07:26:14.985Z,101211.04
2024-04-06T07:27:15.843Z,101214.44
2024-04-06T07:28:16.724Z,101218.28
2024-04-06T07:29:17.612Z,101222.03
2024-04-06T07:30:17.674Z,101227.78
2024-04-06T07:31:17.925Z,101233.42
2024-04-06T07:32:19.258Z,101238.54
2024-04-06T07:33:18.358Z,101242.89
2024-04-06T07:34:19.316Z,101247.74
2024-04-06T07:35:20.130Z,101253.23
2024-04-06T07:36:19.808Z,101258.86
2024-04-06T07:37:21.639Z,101265.20
2024-04-06T07:39:57.033Z,101372.19
2024-04-06T07:40:57.598Z,101372.72
2024-04-06T07:41:58.369Z,101372.94
2024-04-06T07:42:59.200Z,101373.08
2024-04-06T07:44:00.054Z,101374.50
2024-04-06T07:45:00.930Z,101375.76
2024-04-06T07:46:01.568Z,101377.44
2024-04-06T07:47:01.627Z,101379.84
2024-04-06T07:48:02.144Z,101382.12
2024-04-06T07:49:02.433Z,101384.14
2024-04-06T07:50:02.757Z,101386.27
2024-04-06T07:51:03.771Z,101388.68
2024-04-06T07:52:04.578Z,101390.41
2024-04-06T07:53:04.898Z,101392.20
2024-04-06T07:54:04.923Z,101393.95
2024-04-06T07:55:05.470Z,101395.91
2024-04-06T07:56:05.949Z,101397.44
2024-04-06T07:57:06.229Z,101399.00
2024-04-06T07:58:06.981Z,101400.41
2024-04-06T07:59:07.806Z,101401.62
2024-04-06T08:00:08.393Z,101402.50
2024-04-06T08:01:09.050Z,101403.53
2024-04-06T08:02:09.775Z,101404.60
2024-04-06T08:03:09.960Z,101405.88
2024-04-06T08:04:10.967Z,101407.27
2024-04-06T08:05:11.228Z,101407.70
2024-04-06T08:06:11.986Z,101408.27
2024-04-06T08:06:20.653Z,101424.70
2024-04-06T08:07:21.090Z,101423.96
2024-04-06T08:08:21.579Z,101423.33
2024-04-06T08:09:22.185Z,101422.63
2024-04-06T08:10:22.741Z,101421.76
2024-04-06T08:11:23.057Z,101420.44
2024-04-06T08:12:23.046Z,101419.47
2024-04-06T08:13:23.555Z,101418.47
2024-04-06T08:14:25.556Z,101417.83
2024-04-06T08:15:26.154Z,101416.77
2024-04-06T08:16:25.458Z,101415.27
2024-04-06T08:17:26.238Z,101415.10
2024-04-06T08:18:26.801Z,101414.64
2024-04-06T08:19:27.221Z,101413.58
2024-04-06T08:20:27.285Z,101412.53
2024-04-06T08:21:27.975Z,101411.30
2024-04-06T08:22:28.725Z,101410.50
2024-04-06T08:23:57.371Z,101390.09
2024-04-06T08:24:57.343Z,101384.81
2024-04-06T08:25:59.279Z,101384.14
2024-04-06T08:26:58.684Z,101384.12
2024-04-06T08:27:59.426Z,101384.56
2024-04-06T08:29:00.029Z,101385.35
2024-04-06T08:30:00.680Z,101386.69
2024-04-06T08:31:01.081Z,101387.68
2024-04-06T08:32:01.917Z,101387.59
2024-04-06T08:33:03.119Z,101388.13
2024-04-06T08:34:02.986Z,101387.75
2024-04-06T08:35:03.160Z,101387.73
2024-04-06T08:36:03.626Z,101387.17
2024-04-06T08:37:03.773Z,101386.80
2024-04-06T08:38:04.281Z,101386.78
2024-04-06T08:39:05.253Z,101386.68
2024-04-06T08:40:05.626Z,101386.68
2024-04-06T08:41:06.178Z,101386.44
2024-04-06T08:42:06.395Z,101386.03
2024-04-06T08:43:07.217Z,101385.64
2024-04-06T08:44:07.598Z,101385.16
2024-04-06T08:45:08.507Z,101384.89
2024-04-06T08:46:09.126Z,101384.02
2024-04-06T08:47:09.729Z,101384.14
2024-04-06T08:48:11.266Z,101383.45
2024-04-06T08:49:10.727Z,101382.78
2024-04-06T08:50:11.215Z,101382.27
2024-04-06T08:51:11.830Z,101381.45
2024-04-06T08:52:12.334Z,101381.54
2024-04-06T08:52:24.432Z,101383.20
2024-04-06T08:53:24.771Z,101381.70
2024-04-06T08:54:25.112Z,101380.95
2024-04-06T08:55:25.996Z,101380.19
2024-04-06T08:56:26.501Z,101379.50
2024-04-06T08:57:26.847Z,101379.27
2024-04-06T08:58:27.913Z,101378.69
2024-04-06T08:59:27.815Z,101378.38
2024-04-06T09:00:28.231Z,101378.25
2024-04-06T09:01:29.135Z,101377.92
2024-04-06T09:02:30.029Z,101377.17
2024-04-06T09:03:30.326Z,101376.92
2024-04-06T09:04:30.710Z,101376.56
2024-04-06T09:05:31.182Z,101376.23
2024-04-06T09:06:31.985Z,101375.44
2024-04-06T09:07:32.643Z,101375.39
2024-04-06T09:08:33.133Z,101375.04
2024-04-06T09:09:33.567Z,101374.88
2024-04-06T09:10:33.906Z,101374.53
2024-04-06T09:11:34.274Z,101373.90
2024-04-06T09:12:35.150Z,101373.63
2024-04-06T09:13:35.525Z,101373.22
2024-04-06T09:14:35.567Z,101373.14
2024-04-06T09:15:35.886Z,101372.60
2024-04-06T09:16:36.008Z,101372.24
2024-04-06T09:17:36.423Z,101371.75
2024-04-06T09:18:37.412Z,101371.12
2024-04-06T09:18:45.946Z,101362.27
2024-04-06T09:19:46.802Z,101364.14
2024-04-06T09:20:48.068Z,101363.91
2024-04-06T09:21:47.547Z,101364.45
2024-04-06T09:22:47.671Z,101364.66
2024-04-06T09:23:48.523Z,101365.04
2024-04-06T09:24:48.814Z,101365.63
2024-04-06T09:25:49.604Z,101365.70
2024-04-06T09:26:50.216Z,101366.13
2024-04-06T09:27:50.556Z,101366.26
2024-04-06T09:28:51.139Z,101366.80
2024-04-06T09:29:51.967Z,101367.09
2024-04-06T09:30:52.538Z,101367.69
2024-04-06T09:31:53.258Z,101367.61
2024-04-06T09:32:53.622Z,101367.79
2024-04-06T09:33:54.108Z,101368.27
2024-04-06T09:34:54.974Z,101368.36
2024-04-06T09:35:55.510Z,101368.11
2024-04-06T09:36:55.554Z,101368.20
2024-04-06T09:37:56.253Z,101366.90
2024-04-06T09:38:56.694Z,101366.33
2024-04-06T09:39:57.214Z,101365.55
2024-04-06T09:40:58.045Z,101364.45
2024-04-06T09:41:58.647Z,101363.25
2024-04-06T09:42:59.215Z,101362.84
2024-04-06T09:43:59.844Z,101362.20
2024-04-06T09:45:00.317Z,101360.91
2024-04-06T09:46:00.921Z,101360.13
2024-04-06T09:47:01.757Z,101358.92
2024-04-06T09:47:10.415Z,101334.52
2024-04-06T09:48:11.108Z,101335.13
2024-04-06T09:49:11.612Z,101335.90
2024-04-06T09:50:11.823Z,101336.34
2024-04-06T09:51:11.877Z,101336.39
2024-04-06T09:52:12.151Z,101336.33
2024-04-06T09:53:12.685Z,101335.64
2024-04-06T09:54:13.440Z,101334.93
2024-04-06T09:55:14.175Z,101333.92
2024-04-06T09:56:14.905Z,101333.43
2024-04-06T09:57:15.536Z,101332.70
2024-04-06T09:58:16.283Z,101331.84
2024-04-06T09:59:17.032Z,101330.93
2024-04-06T10:00:17.460Z,101329.58
2024-04-06T10:01:19.660Z,101329.10
2024-04-06T10:02:18.868Z,101327.60
2024-04-06T10:03:19.729Z,101326.52
2024-04-06T10:04:20.220Z,101325.80
2024-04-06T10:05:20.686Z,101324.66
2024-04-06T10:06:20.975Z,101324.52
2024-04-06T10:07:21.106Z,101323.80
2024-04-06T10:08:24.158Z,101322.95
2024-04-06T10:09:21.686Z,101321.86
2024-04-06T10:10:21.950Z,101321.15
2024-04-06T10:10:33.682Z,101289.66
2024-04-06T10:11:33.692Z,101290.78
2024-04-06T10:12:33.833Z,101290.70
2024-04-06T10:13:34.255Z,101290.25
2024-04-06T10:15:01.695Z,101281.45
2024-04-06T10:16:01.967Z,101280.95
2024-04-06T10:17:02.249Z,101281.05
2024-04-06T10:18:02.352Z,101281.12
2024-04-06T10:19:03.229Z,101281.54
2024-04-06T10:20:03.800Z,101281.88
2024-04-06T10:21:04.317Z,101282.52
2024-04-06T10:22:04.350Z,101283.59
2024-04-06T10:23:05.371Z,101284.53
2024-04-06T10:24:04.771Z,101284.97
2024-04-06T10:25:05.110Z,101285.44
2024-04-06T10:26:05.954Z,101285.36
2024-04-06T10:27:06.395Z,101284.83
2024-04-06T10:28:08.353Z,101283.97
2024-04-06T10:29:08.059Z,101283.92
2024-04-06T10:30:08.351Z,101283.08
2024-04-06T10:31:11.034Z,101282.53
2024-04-06T10:32:09.873Z,101281.50
2024-04-06T10:33:09.797Z,101279.86
2024-04-06T10:34:10.082Z,101278.56
2024-04-06T10:35:10.732Z,101276.95
2024-04-06T10:36:10.961Z,101274.89
2024-04-06T10:37:12.777Z,101273.95
2024-04-06T10:38:12.398Z,101273.42
2024-04-06T10:39:12.756Z,101272.56
2024-04-06T10:40:14.357Z,101270.91
2024-04-06T10:41:14.051Z,101268.97
2024-04-06T10:42:14.744Z,101267.80
2024-04-06T10:42:27.557Z,101260.37
2024-04-06T10:43:27.882Z,101260.70
2024-04-06T10:44:28.528Z,101260.02
2024-04-06T10:45:29.430Z,101259.85
2024-04-06T10:46:31.332Z,101259.52
2024-04-06T10:47:31.344Z,101258.39
2024-04-06T10:48:32.047Z,101257.78
2024-04-06T10:49:33.981Z,101257.52
2024-04-06T10:50:33.678Z,101256.98
2024-04-06T10:51:43.577Z,101255.62
2024-04-06T10:52:34.852Z,101253.80
2024-04-06T10:53:35.586Z,101251.84
2024-04-06T10:54:38.599Z,101250.26
2024-04-06T10:55:35.655Z,101249.16
2024-04-06T10:56:35.933Z,101249.22
2024-04-06T10:57:36.431Z,101248.42
2024-04-06T10:58:36.736Z,101247.66
2024-04-06T10:59:37.325Z,101247.21
2024-04-06T11:00:38.204Z,101246.44
2024-04-06T11:01:39.006Z,101245.33
2024-04-06T11:02:39.404Z,101244.80
2024-04-06T11:03:39.650Z,101244.02
2024-04-06T11:04:42.783Z,101242.94
2024-04-06T11:05:40.153Z,101242.83
2024-04-06T11:05:51.555Z,101229.41
2024-04-06T11:06:52.244Z,101233.28
2024-04-06T11:07:53.209Z,101232.56
2024-04-06T11:08:54.297Z,101231.85
2024-04-06T11:09:54.404Z,101230.92
2024-04-06T11:10:54.379Z,101230.33
2024-04-06T11:11:55.270Z,101229.69
2024-04-06T11:12:56.184Z,101228.80
2024-04-06T11:13:56.252Z,101228.47
2024-04-06T11:14:56.393Z,101227.86
2024-04-06T11:15:56.386Z,101226.70
2024-04-06T11:16:56.791Z,101225.64
2024-04-06T11:17:57.598Z,101224.44
2024-04-06T11:18:57.946Z,101223.03
2024-04-06T11:19:58.337Z,101222.08
2024-04-06T11:20:59.186Z,101221.17
2024-04-06T11:21:59.462Z,101220.11
2024-04-06T11:22:59.724Z,101219.05
2024-04-06T11:24:00.704Z,101217.61
2024-04-06T11:25:01.549Z,101215.99
2024-04-06T11:26:02.227Z,101214.34
2024-04-06T11:27:03.211Z,101212.01
2024-04-06T11:28:04.194Z,101210.05
2024-04-06T11:29:05.227Z,101207.88
2024-04-06T11:30:05.517Z,101206.09
2024-04-06T11:31:06.043Z,101204.27
2024-04-06T11:32:06.694Z,101202.48